createdAt,value
2022-09-04T00:00:10.736Z,95839.23
2022-09-04T00:06:14.616Z,95846.94
2022-09-04T00:09:10.996Z,95844.41
2022-09-04T00:14:55.414Z,95848.83
2022-09-04T00:20:39.857Z,95847.36
2022-09-04T00:26:12.929Z,95855.05
2022-09-04T00:37:53.652Z,95853.52
2022-09-04T00:43:59.742Z,95853.38
2022-09-04T00:50:19.589Z,95851.78
2022-09-04T00:53:32.729Z,95849.50
2022-09-04T00:56:47.342Z,95848.73
2022-09-04T00:59:46.897Z,95858.09
2022-09-04T01:06:00.329Z,95854.72
2022-09-04T01:12:14.788Z,95857.47
2022-09-04T01:15:09.061Z,95856.58
2022-09-04T01:21:22.676Z,95854.20
2022-09-04T01:27:12.846Z,95854.20
2022-09-04T01:35:48.183Z,95850.19
2022-09-04T01:41:38.450Z,95856.45
2022-09-04T01:47:14.107Z,95861.64
2022-09-04T01:52:49.444Z,95871.72
2022-09-04T01:58:27.538Z,95874.59
2022-09-04T02:04:12.579Z,95876.47
2022-09-04T02:09:54.185Z,95873.30
2022-09-04T02:15:36.075Z,95879.93
2022-09-04T02:21:13.844Z,95884.66
2022-09-04T02:26:56.352Z,95893.48
2022-09-04T02:32:38.141Z,95887.87
2022-09-04T02:38:25.366Z,95889.06
2022-09-04T02:44:14.033Z,95898.14
2022-09-04T02:50:03.334Z,95899.61
2022-09-04T02:55:52.760Z,95898.05
2022-09-04T02:58:48.449Z,95891.63
2022-09-04T03:07:24.426Z,95906.19
2022-09-04T03:13:02.668Z,95909.05
2022-09-04T03:18:45.374Z,95909.19
2022-09-04T03:27:06.496Z,95910.64
2022-09-04T03:32:49.754Z,95907.13
2022-09-04T03:41:18.010Z,95926.38
2022-09-04T03:47:05.072Z,95927.59
2022-09-04T03:50:00.616Z,95922.00
2022-09-04T03:55:46.456Z,95911.18
2022-09-04T04:01:26.802Z,95929.28
2022-09-04T04:07:35.610Z,95936.99
2022-09-04T04:10:35.302Z,95941.19
2022-09-04T04:16:39.777Z,95937.86
2022-09-04T04:19:47.385Z,95943.98
2022-09-04T04:25:54.695Z,95945.85
2022-09-04T04:28:55.497Z,95952.97
2022-09-04T04:34:49.341Z,95954.55
2022-09-04T04:37:44.268Z,95962.63
2022-09-04T04:43:18.197Z,95972.70
2022-09-04T04:52:41.132Z,95982.92
2022-09-04T04:58:44.528Z,95984.20
2022-09-04T05:07:25.018Z,96002.06
2022-09-04T05:13:06.625Z,96012.33
2022-09-04T05:18:39.148Z,96015.76
2022-09-04T05:24:21.165Z,96026.84
2022-09-04T05:32:46.871Z,96039.61
2022-09-04T05:38:21.655Z,96032.35
2022-09-04T05:44:16.207Z,96043.33
2022-09-04T05:50:08.649Z,96039.61
2022-09-04T05:53:32.415Z,96043.52
2022-09-04T05:59:23.851Z,96045.41
2022-09-04T06:05:32.699Z,96053.86
2022-09-04T06:11:59.803Z,96057.88
2022-09-04T06:15:14.249Z,96055.95
2022-09-04T06:21:17.349Z,96062.91
2022-09-04T06:27:32.182Z,96072.67
2022-09-04T06:30:22.064Z,96081.95
2022-09-04T06:36:24.233Z,96084.77
2022-09-04T06:42:21.489Z,96087.73
2022-09-04T06:45:18.195Z,96089.98
2022-09-04T06:51:18.485Z,96098.54
2022-09-04T06:57:13.031Z,96100.98
2022-09-04T07:06:20.591Z,96101.93
2022-09-04T07:09:13.282Z,96104.53
2022-09-04T07:15:41.836Z,96106.46
2022-09-04T07:21:31.103Z,96110.43
2022-09-04T07:24:47.849Z,96122.26
2022-09-04T07:30:35.004Z,96124.02
2022-09-04T07:36:14.598Z,96127.83
2022-09-04T07:41:52.532Z,96120.13
2022-09-04T07:47:36.299Z,96128.53
2022-09-04T07:53:15.138Z,96129.02
2022-09-04T07:59:02.740Z,96131.73
2022-09-04T08:04:52.355Z,96131.84
2022-09-04T08:08:17.775Z,96133.50
2022-09-04T08:18:03.334Z,96142.91
2022-09-04T08:24:02.146Z,96146.02
2022-09-04T08:26:59.620Z,96153.41
2022-09-04T08:33:23.151Z,96151.41
2022-09-04T08:39:07.416Z,96163.12
2022-09-04T08:42:41.623Z,96169.03
2022-09-04T08:45:48.759Z,96169.91
2022-09-04T08:52:09.779Z,96175.64
2022-09-04T08:59:12.523Z,96162.55
2022-09-04T09:02:47.334Z,96163.02
2022-09-04T09:06:00.335Z,96167.19
2022-09-04T09:09:23.068Z,96167.98
2022-09-04T09:16:04.786Z,96160.67
2022-09-04T09:19:06.038Z,96163.08
2022-09-04T09:25:29.953Z,96169.28
2022-09-04T09:28:32.928Z,96163.19
2022-09-04T09:32:13.478Z,96163.23
2022-09-04T09:35:37.909Z,96162.83
2022-09-04T09:42:18.830Z,96160.70
2022-09-04T09:48:32.826Z,96159.64
2022-09-04T09:52:00.868Z,96158.09
2022-09-04T09:58:22.408Z,96153.33
2022-09-04T10:01:33.282Z,96151.14
2022-09-04T10:04:50.743Z,96142.56
2022-09-04T10:08:12.910Z,96142.56
2022-09-04T10:11:24.216Z,96144.77
2022-09-04T10:17:49.963Z,96142.03
2022-09-04T10:21:22.741Z,96140.47
2022-09-04T10:24:53.572Z,96138.73
2022-09-04T10:28:16.862Z,96145.05
2022-09-04T10:38:01.415Z,96125.83
2022-09-04T10:43:51.316Z,96129.55
2022-09-04T10:49:41.064Z,96129.03
2022-09-04T10:56:23.877Z,96118.19
2022-09-04T11:03:06.450Z,96116.55
2022-09-04T11:06:16.266Z,96124.91
2022-09-04T11:12:26.241Z,96110.50
2022-09-04T11:18:59.207Z,96103.23
2022-09-04T11:22:36.503Z,96100.58
2022-09-04T11:26:21.057Z,96105.84
2022-09-04T11:32:26.365Z,96099.54
2022-09-04T11:39:09.007Z,96099.89
2022-09-04T11:45:32.186Z,96098.23
2022-09-04T11:48:42.174Z,96097.20
2022-09-04T11:55:13.306Z,96103.23
2022-09-04T12:00:57.323Z,96091.94
2022-09-04T12:06:55.251Z,96096.62
2022-09-04T12:16:09.966Z,96102.69
2022-09-04T12:22:52.209Z,96098.47
2022-09-04T12:26:17.814Z,96100.48
2022-09-04T12:29:55.675Z,96095.02
2022-09-04T12:33:17.306Z,96089.94
2022-09-04T12:36:38.167Z,96089.94
2022-09-04T12:40:02.905Z,96095.55
2022-09-04T12:45:49.433Z,96091.45
2022-09-04T12:51:25.559Z,96086.23
2022-09-04T12:57:15.943Z,96095.03
2022-09-04T13:02:59.665Z,96086.65
2022-09-04T13:08:47.210Z,96090.87
2022-09-04T13:11:45.525Z,96094.87
2022-09-04T13:17:49.053Z,96095.16
2022-09-04T13:23:35.535Z,96094.05
2022-09-04T13:29:22.174Z,96092.65
2022-09-04T13:32:50.941Z,96097.77
2022-09-04T13:39:00.523Z,96087.89
2022-09-04T13:42:25.711Z,96091.17
2022-09-04T13:47:59.163Z,96087.73
2022-09-04T13:50:54.341Z,96085.89
2022-09-04T13:59:28.824Z,96082.98
2022-09-04T14:07:53.539Z,96075.58
2022-09-04T14:11:17.416Z,96083.66
2022-09-04T14:17:07.723Z,96081.72
2022-09-04T14:22:49.252Z,96087.16
2022-09-04T14:28:30.343Z,96087.53
2022-09-04T14:34:14.976Z,96086.88
2022-09-04T14:39:58.076Z,96084.99
2022-09-04T14:42:50.700Z,96085.72
2022-09-04T14:48:44.686Z,96082.65
2022-09-04T14:51:36.327Z,96081.25
2022-09-04T15:00:13.590Z,96065.09
2022-09-04T15:08:41.564Z,96069.13
2022-09-04T15:14:25.326Z,96058.05
2022-09-04T15:20:05.091Z,96060.11
2022-09-04T15:25:59.471Z,96059.63
2022-09-04T15:28:43.722Z,96061.06
2022-09-04T15:34:26.497Z,96054.74
2022-09-04T15:37:17.897Z,96062.83
2022-09-04T15:43:01.456Z,96066.94
2022-09-04T15:48:50.084Z,96059.13
2022-09-04T15:51:47.685Z,96065.78
2022-09-04T15:54:53.655Z,96061.28
2022-09-04T16:00:38.017Z,96053.39
2022-09-04T16:06:13.891Z,96062.41
2022-09-04T16:11:57.884Z,96049.81
2022-09-04T16:15:10.817Z,96054.60
2022-09-04T16:20:50.827Z,96049.54
2022-09-04T16:26:34.185Z,96052.28
2022-09-04T16:37:37.424Z,96058.11
2022-09-04T16:44:46.407Z,96059.13
2022-09-04T16:47:40.656Z,96055.33
2022-09-04T16:50:31.815Z,96054.01
2022-09-04T16:56:20.672Z,96050.05
2022-09-04T17:02:02.744Z,96059.36
2022-09-04T17:07:49.293Z,96053.25
2022-09-04T17:13:28.001Z,96055.23
2022-09-04T17:19:39.301Z,96055.09
2022-09-04T17:27:03.093Z,96062.46
2022-09-04T17:29:16.667Z,96068.33
2022-09-04T17:31:45.518Z,96067.23
2022-09-04T17:40:51.615Z,96073.22
2022-09-04T17:43:27.646Z,96072.57
2022-09-04T17:49:16.898Z,96070.88
2022-09-04T17:52:09.684Z,96069.02
2022-09-04T17:57:57.077Z,96070.70
2022-09-04T18:03:39.692Z,96073.63
2022-09-04T18:09:26.460Z,96083.73
2022-09-04T18:15:33.894Z,96084.23
2022-09-04T18:18:08.357Z,96090.65
2022-09-04T18:20:58.703Z,96088.26
2022-09-04T18:26:40.425Z,96090.23
2022-09-04T18:32:51.742Z,96089.71
2022-09-04T18:37:21.335Z,96095.98
2022-09-04T18:48:16.007Z,96107.33
2022-09-04T18:53:17.686Z,96112.06
2022-09-04T18:59:27.183Z,96111.20
2022-09-04T19:05:08.124Z,96108.89
2022-09-04T19:11:11.242Z,96111.96
2022-09-04T19:17:10.322Z,96112.93
2022-09-04T19:22:54.198Z,96108.44
2022-09-04T19:28:56.151Z,96103.15
2022-09-04T19:31:51.256Z,96111.04
2022-09-04T19:40:30.166Z,96099.26
2022-09-04T19:53:17.450Z,96106.39
2022-09-04T19:58:06.144Z,96110.30
2022-09-04T20:03:50.340Z,96107.16
2022-09-04T20:06:44.487Z,96118.20
2022-09-04T20:09:37.700Z,96118.78
2022-09-04T20:12:28.888Z,96118.58
2022-09-04T20:15:21.820Z,96118.58
2022-09-04T20:21:02.185Z,96114.45
2022-09-04T20:26:41.571Z,96120.53
2022-09-04T20:32:27.743Z,96126.01
2022-09-04T20:38:12.377Z,96126.00
2022-09-04T20:44:11.629Z,96127.95
2022-09-04T20:50:40.194Z,96129.92
2022-09-04T20:53:12.336Z,96126.37
2022-09-04T21:03:14.259Z,96116.91
2022-09-04T21:03:18.063Z,96114.73
2022-09-04T21:05:01.792Z,96112.08
2022-09-04T21:10:45.874Z,96120.95
2022-09-04T21:25:41.700Z,96137.25
2022-09-04T21:31:52.925Z,96144.14
2022-09-04T21:38:01.904Z,96149.71
2022-09-04T21:47:28.901Z,96162.38
2022-09-04T21:53:25.034Z,96154.05
2022-09-04T22:02:55.733Z,96181.20
2022-09-04T22:11:56.873Z,96170.16
2022-09-04T22:20:23.105Z,96182.41
2022-09-04T22:23:56.529Z,96182.85
2022-09-04T22:27:17.211Z,96178.86
2022-09-04T22:34:14.199Z,96178.25
2022-09-04T22:37:01.722Z,96175.34
2022-09-04T22:42:52.393Z,96180.80
2022-09-04T22:49:42.623Z,96184.23
2022-09-04T22:56:17.824Z,96198.73
2022-09-04T22:58:55.574Z,96200.69
2022-09-04T23:02:13.389Z,96200.92
2022-09-04T23:13:36.283Z,96204.38
2022-09-04T23:26:33.254Z,96208.58
2022-09-04T23:26:46.043Z,96212.61
2022-09-04T23:30:25.773Z,96211.08
2022-09-04T23:37:09.689Z,96210.58
2022-09-04T23:40:39.074Z,96211.72
2022-09-04T23:47:47.967Z,96222.11
2022-09-04T23:53:37.799Z,96219.60
2022-09-04T23:59:36.682Z,96211.74
